Time;durP1;ratioP1;P1;durP2;ratioP2;P2;SDS_P1;SDS_P2;PMS_P1;PMS_P2;Temp;Humidity;BMP_temperature;BMP_pressure;BME280_temperature;BME280_humidity;BME280_pressure;Samples;Min_cycle;Max_cycle;Signal;HPM_P1;HPM_P2
2022/02/10 00:04:30;;;;;;;12.27;7.53;;;;;;;7.48;100.00;102127.72;4972236;28;20483;-86
2022/02/10 00:17:48;;;;;;;8.60;4.50;;;;;;;7.37;100.00;102087.88;4978786;28;20435;-84
2022/02/10 00:20:25;;;;;;;8.33;3.97;;;;;;;7.09;100.00;102044.31;4961824;28;20473;-84
2022/02/10 00:36:13;;;;;;;4.97;1.90;;;;;;;7.34;100.00;102032.13;4996447;22;20566;-67
2022/02/10 00:38:47;;;;;;;3.00;2.27;;;;;;;7.25;100.00;102049.03;4989923;28;20439;-68
2022/02/10 00:41:12;;;;;;;4.33;2.37;;;;;;;7.32;100.00;102054.59;4991058;28;20582;-67
2022/02/10 00:43:37;;;;;;;3.73;2.60;;;;;;;7.25;100.00;102025.84;4988484;28;21169;-68
2022/02/10 00:46:03;;;;;;;5.87;2.00;;;;;;;7.48;100.00;102052.97;4970206;28;20649;-68
2022/02/10 00:48:30;;;;;;;4.43;2.30;;;;;;;7.51;100.00;102045.66;4967759;28;20555;-68
2022/02/10 00:50:56;;;;;;;3.43;2.17;;;;;;;7.34;100.00;102041.97;4972421;28;20186;-68
2022/02/10 00:53:27;;;;;;;5.73;2.73;;;;;;;7.23;100.00;102017.16;4966330;28;20444;-68
2022/02/10 00:55:53;;;;;;;5.80;3.30;;;;;;;7.20;100.00;102016.59;4967795;28;20698;-68
2022/02/10 00:58:40;;;;;;;6.47;3.30;;;;;;;7.54;100.00;102043.53;4969069;28;20441;-68
2022/02/10 01:12:29;;;;;;;5.40;4.33;;;;;;;7.22;100.00;102018.13;4969079;28;20794;-68
2022/02/10 01:31:19;;;;;;;6.57;4.90;;;;;;;7.28;100.00;102006.03;4965558;28;20452;-67
2022/02/10 01:33:45;;;;;;;8.60;6.10;;;;;;;7.25;100.00;101995.66;4965151;28;21084;-68
2022/02/10 01:36:10;;;;;;;8.57;7.00;;;;;;;7.15;100.00;101990.38;4963539;28;20308;-67
2022/02/10 01:38:36;;;;;;;8.63;7.00;;;;;;;7.07;100.00;101973.41;4961422;28;20446;-67
2022/02/10 02:05:39;;;;;;;13.53;9.77;;;;;;;7.29;100.00;101916.97;4970078;28;20600;-68
2022/02/10 02:08:06;;;;;;;12.87;10.20;;;;;;;6.85;100.00;101889.28;4965759;28;20441;-68
2022/02/10 02:10:32;;;;;;;14.63;9.10;;;;;;;7.40;100.00;101955.94;4970042;28;20953;-68
2022/02/10 02:12:57;;;;;;;10.50;9.07;;;;;;;7.18;100.00;101917.19;4967232;28;20446;-68
2022/02/10 02:15:25;;;;;;;10.67;8.80;;;;;;;7.30;100.00;101949.84;4963812;28;20213;-68
2022/02/10 02:17:50;;;;;;;11.70;8.57;;;;;;;7.06;100.00;101913.91;4961797;28;20233;-68
2022/02/10 02:20:15;;;;;;;9.33;7.03;;;;;;;7.02;100.00;101907.16;4954468;28;20514;-68
2022/02/10 02:22:41;;;;;;;9.63;7.23;;;;;;;7.35;100.00;101953.75;4969319;28;20853;-68
2022/02/10 02:25:07;;;;;;;11.00;6.40;;;;;;;7.15;100.00;101894.31;4966131;28;20206;-68
2022/02/10 02:27:51;;;;;;;7.23;6.10;;;;;;;7.41;100.00;101952.31;4968083;28;20190;-68
2022/02/10 02:30:32;;;;;;;10.87;6.87;;;;;;;7.38;100.00;101945.44;4965067;28;20182;-68
2022/02/10 02:38:32;;;;;;;6.30;5.27;;;;;;;7.28;100.00;101936.63;4972724;28;20858;-68
2022/02/10 03:05:54;;;;;;;3.30;2.43;;;;;;;7.14;100.00;101889.94;4968792;28;20490;-68
2022/02/10 03:08:20;;;;;;;2.53;2.30;;;;;;;6.60;100.00;101825.03;4970750;28;20453;-68
2022/02/10 03:13:14;;;;;;;3.90;2.10;;;;;;;7.06;100.00;101860.53;4969497;28;20450;-68
2022/02/10 03:18:54;;;;;;;3.93;2.27;;;;;;;7.07;100.00;101866.72;4969367;28;20509;-68
2022/02/10 04:04:51;;;;;;;4.53;3.10;;;;;;;7.13;100.00;101837.59;4978129;28;20463;-68
2022/02/10 04:12:36;;;;;;;3.60;2.80;;;;;;;7.04;100.00;101849.16;4977094;28;20277;-68
2022/02/10 04:15:12;;;;;;;4.97;3.00;;;;;;;7.06;100.00;101851.66;4977236;28;20484;-68
2022/02/10 04:20:45;;;;;;;3.50;2.90;;;;;;;6.95;100.00;101832.25;4977318;28;20981;-67
2022/02/10 04:39:38;;;;;;;4.80;3.13;;;;;;;6.95;100.00;101834.91;4976781;28;20469;-67
2022/02/10 04:55:54;;;;;;;3.23;2.97;;;;;;;6.97;100.00;101822.28;4973143;28;20477;-67
2022/02/10 05:00:35;;;;;;;4.70;3.10;;;;;;;6.45;100.00;101735.88;4972825;28;20939;-67
2022/02/10 05:34:12;;;;;;;3.80;3.50;;;;;;;7.16;100.00;101815.09;4968646;28;20477;-68
2022/02/10 05:36:40;;;;;;;4.50;4.10;;;;;;;6.85;100.00;101778.13;4972843;28;20546;-68
2022/02/10 05:39:16;;;;;;;4.20;3.60;;;;;;;6.99;100.00;101814.94;4969590;28;20652;-68
2022/02/10 05:52:45;;;;;;;5.87;4.67;;;;;;;6.93;100.00;101804.88;4960501;28;20438;-68
2022/02/10 05:57:59;;;;;;;4.83;4.13;;;;;;;6.88;100.00;101809.81;4963966;28;20510;-68
2022/02/10 06:38:27;;;;;;;4.60;4.20;;;;;;;6.71;100.00;101789.28;4969713;28;20935;-68
2022/02/10 06:51:57;;;;;;;8.03;6.77;;;;;;;6.30;100.00;101727.53;4962862;28;20433;-68
2022/02/10 07:58:21;;;;;;;9.67;5.80;;;;;;;6.52;100.00;101784.94;4997117;28;20906;-89
2022/02/10 08:04:15;;;;;;;14.10;7.30;;;;;;;6.68;100.00;101830.44;4980932;28;20208;-89
2022/02/10 08:26:27;;;;;;;9.13;6.00;;;;;;;6.48;100.00;101858.16;4995792;28;20435;-88
2022/02/10 08:55:35;;;;;;;10.53;5.60;;;;;;;6.13;100.00;101765.63;4996589;28;20298;-90
2022/02/10 10:03:05;;;;;;;8.00;2.70;;;;;;;6.98;100.00;101847.09;5001169;28;21037;-90
2022/02/10 10:05:37;;;;;;;9.93;3.50;;;;;;;7.17;100.00;101862.13;5003042;28;20462;-90
2022/02/10 10:08:23;;;;;;;7.93;3.53;;;;;;;7.16;100.00;101866.63;4988175;28;20455;-89
2022/02/10 10:11:06;;;;;;;8.50;2.90;;;;;;;7.30;100.00;101862.59;4988677;28;20427;-90
2022/02/10 10:16:22;;;;;;;13.07;3.73;;;;;;;7.20;100.00;101889.38;5000745;28;20546;-88
2022/02/10 10:54:29;;;;;;;10.07;2.60;;;;;;;7.22;100.00;101806.47;5005682;28;20518;-86
2022/02/10 10:56:58;;;;;;;9.00;2.67;;;;;;;7.16;100.00;101813.25;4999808;28;20448;-78
2022/02/10 11:23:16;;;;;;;11.10;3.00;;;;;;;7.50;100.00;101803.72;5005114;28;20558;-89
2022/02/10 11:36:40;;;;;;;8.77;2.00;;;;;;;7.07;100.00;101762.66;5005968;28;21067;-86
2022/02/10 11:42:27;;;;;;;7.50;1.67;;;;;;;8.00;100.00;101862.66;5004745;28;20474;-82
2022/02/10 12:36:40;;;;;;;10.20;2.50;;;;;;;8.37;100.00;101819.63;5000309;28;20482;-86
2022/02/10 12:39:37;;;;;;;10.00;2.00;;;;;;;8.45;100.00;101842.91;5001609;28;21080;-88
2022/02/10 12:42:48;;;;;;;10.90;2.83;;;;;;;8.06;100.00;101805.09;4998666;28;20465;-82
2022/02/10 14:15:56;;;;;;;8.50;2.20;;;;;;;7.34;100.00;101829.25;4978931;28;20348;-69
2022/02/10 14:18:27;;;;;;;8.57;1.97;;;;;;;7.59;100.00;101861.53;4976268;28;20468;-70
2022/02/10 14:21:05;;;;;;;13.17;2.20;;;;;;;7.50;100.00;101860.63;4979416;28;20468;-70
2022/02/10 14:26:27;;;;;;;9.47;2.00;;;;;;;7.47;100.00;101866.28;4973707;28;20814;-69
2022/02/10 14:28:53;;;;;;;7.87;2.60;;;;;;;7.50;100.00;101860.63;4980626;28;20500;-70
2022/02/10 14:31:19;;;;;;;7.23;1.87;;;;;;;7.36;100.00;101869.16;4978686;28;20520;-70
2022/02/10 14:33:46;;;;;;;11.40;2.47;;;;;;;7.21;100.00;101874.19;4974822;28;20197;-69
2022/02/10 14:36:19;;;;;;;9.50;1.90;;;;;;;7.39;100.00;101880.38;4973675;28;20551;-69
2022/02/10 15:49:07;;;;;;;7.03;2.50;;;;;;;6.59;100.00;101884.63;4976536;28;20524;-70
2022/02/10 15:51:59;;;;;;;6.43;1.87;;;;;;;6.69;100.00;101903.28;4975087;28;20944;-70
2022/02/10 16:18:07;;;;;;;9.73;2.40;;;;;;;6.49;100.00;101879.34;4985353;28;20964;-70
2022/02/10 16:20:33;;;;;;;11.50;2.60;;;;;;;6.00;100.00;101814.75;4988189;28;20956;-71
2022/02/10 16:23:01;;;;;;;15.13;2.83;;;;;;;6.03;100.00;101838.41;4985846;28;20918;-71
2022/02/10 16:25:28;;;;;;;9.63;1.97;;;;;;;6.34;100.00;101886.16;4986500;28;20205;-70
2022/02/10 16:28:08;;;;;;;11.27;1.97;;;;;;;6.51;100.00;101890.72;4987280;28;21187;-70
2022/02/10 16:30:34;;;;;;;9.03;2.10;;;;;;;6.39;100.00;101865.22;4986184;28;20519;-71
2022/02/10 16:33:00;;;;;;;8.30;1.67;;;;;;;6.31;100.00;101887.28;4986209;28;20516;-70
2022/02/10 16:35:25;;;;;;;8.27;2.40;;;;;;;6.17;100.00;101884.25;4985518;28;20551;-71
2022/02/10 16:37:51;;;;;;;11.13;2.67;;;;;;;6.46;100.00;101887.66;4987421;28;20658;-71
2022/02/10 16:40:17;;;;;;;4.90;1.50;;;;;;;6.33;100.00;101900.44;4986977;28;20221;-70
2022/02/10 16:42:42;;;;;;;8.73;2.40;;;;;;;6.20;100.00;101900.78;4986085;28;20205;-70
2022/02/10 16:45:08;;;;;;;13.37;2.97;;;;;;;6.10;100.00;101898.13;4985438;28;20244;-70
2022/02/10 16:47:34;;;;;;;9.10;2.60;;;;;;;5.93;100.00;101858.94;4986928;28;20193;-70
2022/02/10 16:50:00;;;;;;;10.47;2.20;;;;;;;6.00;100.00;101886.66;4977309;28;20476;-70
2022/02/10 16:52:33;;;;;;;8.83;2.60;;;;;;;5.71;100.00;101801.47;4974325;28;20432;-71
2022/02/10 16:55:22;;;;;;;10.67;2.70;;;;;;;6.17;100.00;101890.41;4981939;28;20999;-71
2022/02/10 17:32:16;;;;;;;8.80;2.53;;;;;;;5.71;100.00;101853.88;4970283;28;20440;-70
2022/02/10 17:45:36;;;;;;;9.30;2.43;;;;;;;5.76;100.00;101891.56;4969169;28;20443;-71
2022/02/10 17:53:37;;;;;;;9.37;2.17;;;;;;;5.87;100.00;101912.69;4977647;28;20952;-71
2022/02/10 17:56:04;;;;;;;8.90;2.00;;;;;;;5.81;100.00;101905.28;4976535;28;20548;-71
2022/02/10 17:58:29;;;;;;;13.37;2.50;;;;;;;5.89;100.00;101916.06;4963057;28;20440;-71
2022/02/10 18:00:57;;;;;;;14.13;2.80;;;;;;;5.82;100.00;101928.28;4977110;28;20531;-71
2022/02/10 18:03:22;;;;;;;13.37;2.70;;;;;;;5.73;100.00;101927.31;4976884;28;20201;-70
2022/02/10 18:06:23;;;;;;;13.83;2.80;;;;;;;5.91;100.00;101922.09;4978251;28;20504;-69
2022/02/10 18:12:03;;;;;;;10.67;2.37;;;;;;;5.46;100.00;101858.78;4981173;28;20469;-70
2022/02/10 18:14:10;;;;;;;11.20;3.13;;;;;;;5.46;100.00;101874.75;4972712;28;20464;-69
2022/02/10 18:16:50;;;;;;;11.00;2.70;;;;;;;5.64;100.00;101901.50;4973837;28;20515;-70
2022/02/10 18:19:24;;;;;;;12.97;2.20;;;;;;;5.38;100.00;101882.59;4978597;28;20433;-70
2022/02/10 18:30:12;;;;;;;6.30;2.43;;;;;;;5.71;100.00;101936.41;4977679;28;20456;-71
2022/02/10 19:05:26;;;;;;;8.67;2.40;;;;;;;5.27;100.00;101880.09;4992921;28;20475;-74
2022/02/10 19:09:00;;;;;;;11.67;2.80;;;;;;;5.57;100.00;101951.78;4998468;28;20511;-74
2022/02/10 19:11:27;;;;;;;12.90;2.63;;;;;;;5.48;100.00;101955.28;4997934;28;20518;-74
2022/02/10 19:13:55;;;;;;;12.73;2.30;;;;;;;5.22;100.00;101915.06;4997735;28;20919;-73
2022/02/10 19:16:22;;;;;;;11.83;2.37;;;;;;;5.12;100.00;101880.47;5002171;28;20486;-77
2022/02/10 19:18:47;;;;;;;12.43;3.53;;;;;;;4.85;100.00;101865.16;5000292;28;20443;-77
2022/02/10 19:21:13;;;;;;;6.87;2.17;;;;;;;5.49;100.00;101953.47;4998883;28;20827;-75
2022/02/10 19:23:38;;;;;;;7.57;2.40;;;;;;;5.33;100.00;101940.72;5003994;28;20193;-76
2022/02/10 19:26:04;;;;;;;6.50;2.70;;;;;;;5.44;100.00;101967.19;5000175;28;20284;-74
2022/02/10 19:28:29;;;;;;;13.00;2.77;;;;;;;5.46;100.00;101953.75;5001169;28;20594;-77
2022/02/10 19:30:56;;;;;;;10.27;2.90;;;;;;;5.16;100.00;101881.88;4984613;28;20173;-76
2022/02/10 19:33:21;;;;;;;17.73;2.70;;;;;;;5.48;100.00;101954.47;5005388;28;20239;-76
2022/02/10 19:35:50;;;;;;;9.90;3.00;;;;;;;4.85;100.00;101846.53;5003023;28;20963;-75
2022/02/10 19:38:20;;;;;;;13.20;2.83;;;;;;;5.49;100.00;101954.31;5001232;28;20220;-74
2022/02/10 19:40:51;;;;;;;9.23;2.03;;;;;;;5.12;100.00;101906.22;4999623;28;20427;-72
2022/02/10 19:43:19;;;;;;;10.37;2.53;;;;;;;4.53;100.00;101793.59;4995281;28;20436;-71
2022/02/10 19:45:44;;;;;;;8.03;2.47;;;;;;;5.28;100.00;101934.97;4999881;28;20447;-71
2022/02/10 19:48:10;;;;;;;10.47;2.40;;;;;;;5.00;100.00;101847.00;4998357;28;20510;-71
2022/02/10 19:50:36;;;;;;;17.27;2.80;;;;;;;5.39;100.00;101958.78;5004181;28;20203;-75
2022/02/10 19:53:06;;;;;;;9.07;2.37;;;;;;;5.39;100.00;101921.53;4983331;28;20204;-72
2022/02/10 19:55:33;;;;;;;14.93;1.90;;;;;;;5.20;100.00;101891.25;4985555;28;20185;-72
2022/02/10 19:58:05;;;;;;;13.43;2.83;;;;;;;4.85;100.00;101837.75;4985322;28;20443;-74
2022/02/10 20:00:42;;;;;;;8.00;2.40;;;;;;;5.42;100.00;101940.72;5000598;28;20463;-73
2022/02/10 20:03:16;;;;;;;11.70;2.80;;;;;;;5.37;100.00;101953.59;5003767;28;20474;-75
2022/02/10 20:05:46;;;;;;;9.57;2.53;;;;;;;4.90;100.00;101835.50;5000785;28;20455;-74
2022/02/10 20:08:23;;;;;;;8.83;2.23;;;;;;;5.46;100.00;101927.13;4999775;28;20435;-74
2022/02/10 20:10:54;;;;;;;10.10;2.37;;;;;;;5.29;100.00;101937.47;4997532;28;20855;-73
2022/02/10 20:13:25;;;;;;;13.03;2.70;;;;;;;5.42;100.00;101934.56;5007609;28;20485;-76
2022/02/10 20:15:51;;;;;;;9.67;2.30;;;;;;;5.34;100.00;101913.97;4987067;28;20550;-72
2022/02/10 20:18:18;;;;;;;10.03;2.40;;;;;;;4.49;100.00;101776.25;4997416;28;20476;-73
2022/02/10 20:20:46;;;;;;;7.13;1.90;;;;;;;5.13;100.00;101914.06;4991663;28;20185;-75
2022/02/10 20:23:12;;;;;;;11.83;1.97;;;;;;;5.43;100.00;101934.41;4996829;28;20540;-74
2022/02/10 20:25:38;;;;;;;10.03;2.50;;;;;;;5.25;100.00;101900.66;4997680;28;20450;-75
2022/02/10 20:28:09;;;;;;;9.20;2.07;;;;;;;4.80;100.00;101859.41;4999812;28;21229;-77
2022/02/10 20:30:39;;;;;;;15.60;2.10;;;;;;;5.25;100.00;101887.34;5003919;28;20431;-76
2022/02/10 20:33:06;;;;;;;9.83;2.93;;;;;;;5.62;100.00;101935.41;5004385;28;20432;-75
2022/02/10 20:35:36;;;;;;;8.60;2.10;;;;;;;5.60;100.00;101934.72;5001240;28;20836;-75
2022/02/10 20:38:03;;;;;;;7.97;2.20;;;;;;;5.15;100.00;101911.25;5007149;28;20806;-75
2022/02/10 20:40:33;;;;;;;8.00;2.00;;;;;;;4.84;100.00;101874.13;5003179;28;20439;-75
2022/02/10 20:43:04;;;;;;;13.17;2.30;;;;;;;3.51;100.00;101601.72;5005082;28;20874;-74
2022/02/10 20:45:31;;;;;;;11.10;2.50;;;;;;;5.10;100.00;101871.78;5000380;28;20436;-73
2022/02/10 20:47:56;;;;;;;7.70;2.53;;;;;;;5.44;100.00;101933.44;4995432;28;20928;-74
2022/02/10 20:50:22;;;;;;;14.73;2.60;;;;;;;5.33;100.00;101924.75;5001910;28;20451;-77
2022/02/10 20:52:51;;;;;;;13.37;3.07;;;;;;;5.35;100.00;101928.09;5001787;28;20676;-75
2022/02/10 20:55:17;;;;;;;11.50;2.97;;;;;;;5.22;100.00;101893.78;4983705;28;20447;-75
2022/02/10 20:57:43;;;;;;;16.50;3.60;;;;;;;5.16;100.00;101918.28;4993565;28;20487;-76
2022/02/10 21:00:16;;;;;;;10.83;3.13;;;;;;;5.41;100.00;101927.56;4981237;28;20956;-75
2022/02/10 21:02:45;;;;;;;10.27;2.20;;;;;;;5.25;100.00;101911.28;5004474;28;20197;-74
2022/02/10 21:07:56;;;;;;;12.33;2.17;;;;;;;4.69;100.00;101819.66;5000306;28;20474;-74
2022/02/10 21:10:24;;;;;;;11.53;2.60;;;;;;;5.18;100.00;101909.19;5002082;28;20454;-74
2022/02/10 21:12:49;;;;;;;19.10;3.87;;;;;;;5.03;100.00;101891.09;5004282;28;20444;-75
2022/02/10 21:15:19;;;;;;;10.10;3.30;;;;;;;4.87;100.00;101873.84;5002504;28;20427;-74
2022/02/10 21:17:47;;;;;;;10.53;2.80;;;;;;;5.12;100.00;101933.69;5002635;28;20209;-75
2022/02/10 21:20:14;;;;;;;13.07;3.23;;;;;;;4.92;100.00;101894.72;5004421;28;20444;-74
2022/02/10 21:22:45;;;;;;;9.07;2.60;;;;;;;5.23;100.00;101930.03;5000262;28;20476;-74
2022/02/10 21:25:21;;;;;;;9.17;2.60;;;;;;;4.75;100.00;101841.22;5001721;28;20562;-77
2022/02/10 21:27:49;;;;;;;10.63;2.20;;;;;;;5.27;100.00;101943.94;5004269;28;20431;-75
2022/02/10 21:30:17;;;;;;;12.03;2.50;;;;;;;5.23;100.00;101916.72;5001434;28;20542;-75
2022/02/10 21:32:53;;;;;;;8.33;2.03;;;;;;;5.11;100.00;101917.84;5000835;28;20532;-74
2022/02/10 21:35:25;;;;;;;8.27;2.57;;;;;;;4.72;100.00;101859.25;5002567;28;20428;-74
2022/02/10 21:38:10;;;;;;;6.50;1.90;;;;;;;5.14;100.00;101915.75;5002671;28;20784;-74
2022/02/10 22:01:56;;;;;;;8.20;2.60;;;;;;;4.94;100.00;101914.84;5000742;28;20657;-74
2022/02/10 22:04:13;;;;;;;8.90;3.17;;;;;;;4.39;100.00;101815.22;5002016;28;20434;-74
2022/02/10 22:07:05;;;;;;;7.83;2.40;;;;;;;4.42;100.00;101828.25;4997822;28;20464;-77
2022/02/10 22:20:06;;;;;;;7.43;2.10;;;;;;;4.86;100.00;101908.53;4980162;28;20464;-74
2022/02/10 22:22:36;;;;;;;9.43;2.63;;;;;;;4.22;100.00;101812.25;4998397;28;20459;-74
2022/02/10 22:25:08;;;;;;;11.27;2.70;;;;;;;4.71;100.00;101900.91;4994728;28;21220;-75
2022/02/10 22:27:38;;;;;;;14.80;3.83;;;;;;;4.60;100.00;101884.22;4999832;28;20455;-75
2022/02/10 22:30:11;;;;;;;9.40;3.00;;;;;;;4.84;100.00;101915.81;4999012;28;20771;-74
2022/02/10 22:32:54;;;;;;;10.47;3.10;;;;;;;4.81;100.00;101898.31;4997539;28;20435;-74
2022/02/10 22:35:19;;;;;;;7.30;2.40;;;;;;;4.69;100.00;101908.22;4995377;28;20423;-74
2022/02/10 22:37:46;;;;;;;10.50;2.40;;;;;;;5.06;100.00;101898.78;4999809;28;20986;-75
2022/02/10 22:40:36;;;;;;;10.10;2.83;;;;;;;4.71;100.00;101900.91;4997673;28;20177;-74
2022/02/10 22:43:00;;;;;;;8.80;1.93;;;;;;;4.14;100.00;101817.38;4997571;28;20572;-75
2022/02/10 22:45:26;;;;;;;14.90;3.40;;;;;;;4.11;100.00;101787.56;4976889;28;20467;-75
2022/02/10 22:47:51;;;;;;;14.23;3.50;;;;;;;4.36;100.00;101834.09;5001614;28;20489;-75
2022/02/10 22:50:16;;;;;;;9.20;2.43;;;;;;;4.46;100.00;101821.69;5002840;28;20254;-74
2022/02/10 22:52:42;;;;;;;12.47;3.00;;;;;;;4.40;100.00;101788.53;5003144;28;20180;-75
2022/02/10 22:55:08;;;;;;;12.47;2.50;;;;;;;3.91;100.00;101750.34;4982710;28;20657;-75
2022/02/10 22:57:34;;;;;;;6.60;2.50;;;;;;;4.61;100.00;101885.94;4997491;28;20212;-74
2022/02/10 23:00:04;;;;;;;12.70;2.33;;;;;;;4.18;100.00;101823.25;5004695;28;20189;-75
2022/02/10 23:02:30;;;;;;;13.47;2.27;;;;;;;4.87;100.00;101896.94;5001999;28;20452;-74
2022/02/10 23:04:55;;;;;;;7.83;1.97;;;;;;;4.62;100.00;101880.47;5002287;28;20497;-73
2022/02/10 23:07:21;;;;;;;8.67;2.40;;;;;;;4.91;100.00;101880.56;5004681;28;20723;-75
2022/02/10 23:09:53;;;;;;;10.93;2.23;;;;;;;4.24;100.00;101796.16;5000377;28;20239;-75
2022/02/10 23:12:18;;;;;;;13.20;2.20;;;;;;;4.75;100.00;101886.41;5004011;28;20715;-75
2022/02/10 23:14:44;;;;;;;7.53;2.10;;;;;;;4.59;100.00;101871.94;5002166;28;20443;-75
2022/02/10 23:17:10;;;;;;;7.80;2.03;;;;;;;4.49;100.00;101864.78;5001343;28;20829;-76
2022/02/10 23:19:38;;;;;;;8.50;2.20;;;;;;;4.27;100.00;101820.63;5002119;28;20268;-74
2022/02/10 23:22:04;;;;;;;9.50;2.33;;;;;;;4.23;100.00;101819.22;5005668;28;20258;-74
2022/02/10 23:24:29;;;;;;;12.30;2.90;;;;;;;4.19;100.00;101753.22;5002236;28;20444;-75
2022/02/10 23:26:55;;;;;;;10.73;2.97;;;;;;;4.48;100.00;101811.75;5000875;28;20204;-74
2022/02/10 23:29:20;;;;;;;8.73;2.43;;;;;;;4.20;100.00;101792.94;4998761;28;20189;-75
2022/02/10 23:31:46;;;;;;;13.43;2.40;;;;;;;4.49;100.00;101848.84;5000894;28;20177;-74
2022/02/10 23:34:12;;;;;;;6.67;1.87;;;;;;;4.25;100.00;101806.66;5000139;28;20711;-74
2022/02/10 23:36:50;;;;;;;10.80;2.10;;;;;;;4.57;100.00;101868.56;5003341;28;20764;-75
2022/02/10 23:39:25;;;;;;;9.87;2.70;;;;;;;4.63;100.00;101841.44;5001018;28;20416;-74
2022/02/10 23:42:02;;;;;;;10.70;2.20;;;;;;;4.89;100.00;101863.06;5002345;28;20467;-74
2022/02/10 23:44:32;;;;;;;11.60;2.37;;;;;;;4.54;100.00;101816.53;5004871;28;20431;-73
2022/02/10 23:47:00;;;;;;;7.07;2.37;;;;;;;4.82;100.00;101851.31;5003198;28;20972;-74
2022/02/10 23:49:27;;;;;;;18.23;3.10;;;;;;;4.26;100.00;101789.75;5001213;28;20659;-76
2022/02/10 23:52:01;;;;;;;9.80;2.90;;;;;;;4.59;100.00;101851.50;5004447;28;20438;-73
2022/02/10 23:54:36;;;;;;;7.97;1.87;;;;;;;4.46;100.00;101814.56;4999092;28;20579;-75
2022/02/10 23:57:11;;;;;;;9.90;2.13;;;;;;;4.46;100.00;101808.41;4997722;28;20998;-74
